Time;durP1;ratioP1;P1;durP2;ratioP2;P2;SDS_P1;SDS_P2;PMS_P1;PMS_P2;Temp;Humidity;BMP_temperature;BMP_pressure;BME280_temperature;BME280_humidity;BME280_pressure;Samples;Min_cycle;Max_cycle;Signal;HPM_P1;HPM_P2
2023/06/18 00:00:18;;;;;;;1.95;1.77;;;;;;;18.39;nan;-363.31;4992785;28;20184;-56
2023/06/18 00:02:43;;;;;;;2.67;2.00;;;;;;;18.43;nan;-362.78;4992654;28;20192;-56
2023/06/18 00:05:09;;;;;;;2.60;2.00;;;;;;;18.16;nan;-40.94;4992751;28;20208;-55
2023/06/18 00:07:35;;;;;;;2.72;2.10;;;;;;;18.15;nan;-41.06;4992631;28;20632;-57
2023/06/18 00:10:03;;;;;;;2.72;2.22;;;;;;;18.10;nan;-41.59;4992965;28;20284;-57
2023/06/18 00:12:28;;;;;;;3.20;2.10;;;;;;;18.42;nan;-37.84;4992697;28;20172;-58
2023/06/18 00:14:54;;;;;;;2.70;2.30;;;;;;;18.57;nan;3542.53;4993042;28;20160;-55
2023/06/18 00:17:21;;;;;;;2.55;2.13;;;;;;;18.38;nan;4190.06;4992590;28;20169;-57
2023/06/18 00:19:46;;;;;;;3.00;2.15;;;;;;;18.23;nan;3861.91;4992508;28;20180;-57
2023/06/18 00:22:14;;;;;;;3.45;2.10;;;;;;;18.07;nan;3208.69;4992603;28;20191;-58
2023/06/18 00:24:40;;;;;;;2.83;2.20;;;;;;;18.32;nan;5816.69;4992471;28;20207;-56
2023/06/18 00:27:05;;;;;;;3.20;2.20;;;;;;;18.39;nan;5166.94;4992613;28;20169;-56
2023/06/18 00:29:31;;;;;;;4.82;2.20;;;;;;;18.59;nan;4519.50;4992382;28;20230;-56
2023/06/18 00:31:56;;;;;;;2.72;2.20;;;;;;;18.63;nan;7452.44;4992797;28;20260;-55
2023/06/18 00:34:32;;;;;;;3.25;2.35;;;;;;;18.59;nan;7451.34;4992401;28;20618;-57
2023/06/18 00:37:00;;;;;;;3.17;2.40;;;;;;;18.66;nan;8104.97;4992198;28;20180;-55
2023/06/18 00:39:25;;;;;;;5.45;2.70;;;;;;;18.54;nan;6798.69;4992053;28;20559;-55
2023/06/18 00:41:51;;;;;;;3.17;2.25;;;;;;;18.35;nan;8749.22;4991765;28;20219;-57
2023/06/18 00:44:20;;;;;;;3.00;2.22;;;;;;;18.33;nan;8422.81;4992336;28;20192;-56
2023/06/18 00:46:47;;;;;;;2.80;2.22;;;;;;;18.62;nan;8103.97;4992243;28;20628;-57
2023/06/18 00:49:15;;;;;;;2.88;2.35;;;;;;;18.65;nan;9735.13;4992470;28;20172;-55
2023/06/18 00:51:45;;;;;;;3.55;2.30;;;;;;;18.64;nan;9734.88;4992455;28;20165;-57
2023/06/18 00:54:15;;;;;;;3.00;2.13;;;;;;;18.59;nan;10385.81;4992113;28;20165;-55
2023/06/18 00:56:52;;;;;;;2.67;2.20;;;;;;;18.43;nan;11359.81;4975357;28;20267;-56
2023/06/18 00:59:24;;;;;;;2.67;2.20;;;;;;;18.56;nan;12995.41;4992288;28;20259;-57
2023/06/18 01:01:52;;;;;;;2.95;1.90;;;;;;;18.72;nan;13000.72;4992536;28;20271;-56
2023/06/18 01:04:20;;;;;;;2.75;2.22;;;;;;;18.77;nan;12675.81;4991785;28;20582;-55
2023/06/18 01:06:51;;;;;;;3.08;2.13;;;;;;;18.75;nan;12675.19;4991681;28;20231;-57
2023/06/18 01:09:20;;;;;;;2.80;2.17;;;;;;;18.49;nan;13972.78;4992142;28;20235;-56
2023/06/18 01:11:45;;;;;;;3.50;2.42;;;;;;;18.53;nan;12015.63;4991927;28;20236;-56
2023/06/18 01:14:11;;;;;;;2.75;1.80;;;;;;;18.61;nan;13323.56;4993669;28;20177;-56
2023/06/18 01:16:46;;;;;;;3.40;2.40;;;;;;;18.70;nan;12673.53;4995593;28;20203;-57
2023/06/18 01:19:47;;;;;;;2.47;2.03;;;;;;;18.78;nan;14309.16;4995668;28;20163;-56
2023/06/18 01:22:29;;;;;;;3.10;2.20;;;;;;;18.46;nan;14624.78;4993214;28;20185;-57
2023/06/18 01:24:58;;;;;;;3.53;2.33;;;;;;;18.43;nan;14623.72;4995572;28;20664;-56
2023/06/18 01:27:27;;;;;;;3.25;2.20;;;;;;;18.81;nan;15290.47;4995552;28;20169;-56
2023/06/18 01:29:54;;;;;;;2.75;2.28;;;;;;;18.75;nan;16595.59;4995419;28;20177;-55
2023/06/18 01:32:21;;;;;;;3.42;2.40;;;;;;;18.48;nan;15931.81;4996115;28;20192;-56
2023/06/18 01:34:47;;;;;;;5.00;2.17;;;;;;;18.71;nan;16594.22;4995456;28;20173;-55
2023/06/18 01:37:36;;;;;;;3.30;2.50;;;;;;;18.84;nan;16926.25;4995382;28;20185;-56
2023/06/18 01:40:38;;;;;;;3.88;2.30;;;;;;;18.75;nan;18557.75;4994484;28;20549;-55
2023/06/18 01:43:18;;;;;;;4.32;2.17;;;;;;;18.85;nan;17907.53;4995108;28;20231;-55
2023/06/18 01:45:50;;;;;;;5.13;2.13;;;;;;;18.60;nan;19532.59;4995392;28;20215;-56
2023/06/18 01:48:20;;;;;;;3.70;2.30;;;;;;;18.83;nan;21179.00;4995306;28;20168;-55
2023/06/18 01:50:48;;;;;;;2.80;2.33;;;;;;;18.75;nan;18884.84;4994183;28;20883;-57
2023/06/18 01:53:16;;;;;;;5.80;2.42;;;;;;;18.75;nan;19539.16;4994803;28;20172;-57
2023/06/18 01:55:44;;;;;;;3.20;2.35;;;;;;;18.48;nan;19854.63;4994819;28;20228;-56
2023/06/18 01:58:11;;;;;;;3.30;2.35;;;;;;;18.80;nan;18559.66;4994815;28;20183;-56
2023/06/18 02:00:36;;;;;;;3.13;2.20;;;;;;;18.75;nan;19866.16;4994761;28;20176;-56
2023/06/18 02:03:02;;;;;;;2.58;2.25;;;;;;;18.53;nan;22147.13;4994140;28;20173;-57
2023/06/18 02:05:28;;;;;;;3.05;2.42;;;;;;;18.64;nan;22479.56;4994604;28;20695;-56
2023/06/18 02:07:53;;;;;;;2.58;2.20;;;;;;;18.68;nan;25429.78;4994615;28;20185;-57
2023/06/18 02:10:18;;;;;;;2.30;2.10;;;;;;;18.62;nan;24116.03;4994760;28;20544;-56
2023/06/18 02:12:44;;;;;;;3.35;2.10;;;;;;;18.83;nan;24782.25;4994712;28;20227;-56
2023/06/18 02:15:10;;;;;;;3.38;2.38;;;;;;;18.84;nan;26750.13;4994614;28;20168;-55
2023/06/18 02:17:35;;;;;;;3.40;2.78;;;;;;;18.69;nan;25102.59;4993881;28;20184;-55
2023/06/18 02:20:01;;;;;;;2.90;2.40;;;;;;;18.83;nan;25437.78;4994053;28;20169;-57
2023/06/18 02:22:26;;;;;;;2.85;2.40;;;;;;;18.59;nan;26080.66;4994260;28;20169;-55
2023/06/18 02:24:52;;;;;;;3.55;2.58;;;;;;;18.54;nan;26733.44;4974530;28;20266;-57
2023/06/18 02:27:18;;;;;;;2.75;2.20;;;;;;;18.36;nan;25740.50;4993842;28;20181;-56
2023/06/18 02:29:45;;;;;;;3.40;2.53;;;;;;;18.48;nan;27385.94;4994486;28;20164;-57
2023/06/18 02:32:11;;;;;;;3.45;2.30;;;;;;;18.82;nan;27404.94;4994007;28;20584;-56
2023/06/18 02:34:37;;;;;;;3.65;2.45;;;;;;;18.64;nan;27722.66;4994278;28;20180;-56
2023/06/18 02:37:03;;;;;;;4.70;2.70;;;;;;;18.23;nan;28354.94;4994180;28;20715;-57
2023/06/18 02:39:29;;;;;;;3.95;3.00;;;;;;;18.85;nan;28718.69;4994184;28;20264;-57
2023/06/18 02:41:54;;;;;;;4.22;2.70;;;;;;;18.92;nan;29707.47;4994469;28;20224;-57
2023/06/18 02:44:20;;;;;;;3.58;2.80;;;;;;;18.69;nan;31006.75;4994398;28;20200;-55
2023/06/18 02:46:45;;;;;;;3.72;2.80;;;;;;;18.62;nan;30674.13;4994012;28;20177;-55
2023/06/18 02:49:11;;;;;;;4.07;2.88;;;;;;;18.90;nan;29049.81;4994328;28;20197;-55
2023/06/18 02:51:37;;;;;;;3.97;3.00;;;;;;;18.91;nan;29378.63;4994143;28;20177;-56
2023/06/18 02:54:03;;;;;;;4.45;2.92;;;;;;;18.85;nan;27734.69;4993886;28;20183;-57
2023/06/18 02:56:28;;;;;;;4.57;2.83;;;;;;;18.87;nan;29048.03;4993879;28;20165;-57
2023/06/18 02:58:56;;;;;;;5.13;3.08;;;;;;;18.77;nan;30026.63;4994551;28;20628;-57
2023/06/18 03:01:23;;;;;;;4.28;3.03;;;;;;;19.06;nan;30701.16;4993674;28;20180;-57
2023/06/18 03:03:49;;;;;;;4.28;3.42;;;;;;;19.05;nan;32671.47;4993898;28;20176;-56
2023/06/18 03:06:15;;;;;;;4.22;2.70;;;;;;;19.33;nan;35979.28;4994023;28;20212;-57
2023/06/18 03:08:40;;;;;;;4.32;2.90;;;;;;;19.45;nan;39442.97;4994012;28;20172;-58
2023/06/18 03:11:05;;;;;;;5.00;3.25;;;;;;;19.72;nan;45447.06;4993483;28;20243;-58
2023/06/18 03:13:31;;;;;;;4.68;2.95;;;;;;;20.34;nan;50285.91;4993576;28;20173;-57
2023/06/18 03:15:56;;;;;;;4.90;3.13;;;;;;;20.78;nan;53615.63;4993233;28;20177;-57
2023/06/18 03:18:22;;;;;;;4.72;3.10;;;;;;;20.92;nan;55975.56;4994170;28;20268;-57
2023/06/18 03:20:47;;;;;;;4.95;3.30;;;;;;;20.75;nan;56095.31;4994063;28;20176;-57
2023/06/18 03:23:12;;;;;;;4.70;3.22;;;;;;;21.07;nan;57286.22;4993822;28;20188;-57
2023/06/18 03:25:38;;;;;;;4.50;3.33;;;;;;;21.05;nan;56920.84;4993680;28;20208;-56
2023/06/18 03:28:03;;;;;;;4.03;3.10;;;;;;;20.45;nan;55826.22;4993318;28;20180;-56
2023/06/18 03:30:29;;;;;;;4.82;3.45;;;;;;;20.50;nan;54256.78;4993255;28;20637;-57
2023/06/18 03:32:56;;;;;;;8.98;3.38;;;;;;;20.48;nan;54653.66;4993302;28;20219;-56
2023/06/18 03:35:21;;;;;;;4.60;3.25;;;;;;;20.98;nan;55725.59;4993553;28;20243;-57
2023/06/18 03:37:47;;;;;;;4.95;3.45;;;;;;;20.71;nan;54695.19;4993212;28;20554;-57
2023/06/18 03:40:13;;;;;;;5.57;3.60;;;;;;;20.38;nan;52636.47;4993122;28;20184;-57
2023/06/18 03:42:38;;;;;;;5.78;3.38;;;;;;;20.07;nan;49317.41;4992967;28;20826;-56
2023/06/18 03:45:05;;;;;;;6.13;3.60;;;;;;;19.84;nan;48950.31;4992637;28;20751;-56
2023/06/18 03:47:31;;;;;;;5.78;3.80;;;;;;;19.84;nan;48302.44;4974564;28;20276;-56
2023/06/18 03:49:56;;;;;;;4.45;3.05;;;;;;;19.64;nan;45824.56;4973617;28;20252;-55
2023/06/18 03:52:21;;;;;;;5.80;3.75;;;;;;;19.83;nan;46212.34;4973497;28;20169;-56
2023/06/18 03:54:47;;;;;;;5.45;3.42;;;;;;;20.04;nan;46607.75;4973617;28;20656;-56
2023/06/18 03:57:12;;;;;;;5.85;3.85;;;;;;;20.42;nan;48377.31;4973480;28;20196;-56
2023/06/18 03:59:38;;;;;;;5.13;3.38;;;;;;;20.61;nan;50912.25;4973151;28;20173;-56
2023/06/18 04:02:04;;;;;;;4.40;3.22;;;;;;;20.68;nan;50577.31;4973575;28;20656;-56
2023/06/18 04:04:29;;;;;;;5.53;3.60;;;;;;;20.60;nan;49705.09;4973194;28;20296;-58
2023/06/18 04:06:54;;;;;;;5.32;3.70;;;;;;;20.70;nan;50900.16;4973362;28;20223;-56
2023/06/18 04:09:20;;;;;;;5.20;3.70;;;;;;;20.55;nan;51501.75;4973022;28;20169;-58
2023/06/18 04:11:46;;;;;;;6.78;4.00;;;;;;;20.91;nan;51887.75;4973234;28;20193;-56
2023/06/18 04:14:11;;;;;;;5.85;3.80;;;;;;;20.66;nan;51986.13;4973695;28;20178;-55
2023/06/18 04:16:37;;;;;;;5.18;3.65;;;;;;;20.51;nan;48517.84;4973588;28;20617;-56
2023/06/18 04:19:02;;;;;;;4.35;3.30;;;;;;;20.73;nan;50959.47;4973142;28;20182;-57
2023/06/18 04:21:28;;;;;;;5.57;3.63;;;;;;;20.67;nan;51650.53;4973526;28;20236;-58
2023/06/18 04:23:54;;;;;;;5.15;3.55;;;;;;;20.79;nan;50794.38;4973087;28;20182;-56
2023/06/18 04:26:21;;;;;;;4.72;3.40;;;;;;;20.32;nan;49492.72;4973088;28;20724;-56
2023/06/18 04:28:46;;;;;;;5.40;3.70;;;;;;;20.69;nan;50546.72;4973851;28;20260;-55
2023/06/18 04:31:12;;;;;;;5.05;3.65;;;;;;;20.67;nan;49758.19;4973013;28;20665;-55
2023/06/18 04:33:37;;;;;;;5.28;3.50;;;;;;;20.29;nan;49154.28;4973118;28;20177;-57
2023/06/18 04:36:03;;;;;;;6.55;3.80;;;;;;;20.24;nan;47067.19;4973038;28;20180;-57
2023/06/18 04:38:28;;;;;;;5.35;3.60;;;;;;;20.17;nan;45423.59;4972914;28;20329;-55
2023/06/18 04:40:54;;;;;;;5.55;3.72;;;;;;;20.33;nan;44693.31;4972757;28;20176;-54
2023/06/18 04:43:19;;;;;;;5.57;4.18;;;;;;;20.00;nan;43669.63;4973142;28;20652;-55
2023/06/18 04:45:46;;;;;;;6.07;3.88;;;;;;;20.00;nan;41217.06;4972825;28;20201;-57
2023/06/18 04:48:12;;;;;;;5.57;3.72;;;;;;;19.98;nan;41720.78;4972946;28;20173;-58
2023/06/18 04:50:39;;;;;;;5.90;4.05;;;;;;;20.14;nan;43678.75;4977106;28;20228;-56
2023/06/18 04:53:04;;;;;;;6.72;4.00;;;;;;;20.37;nan;40789.19;4977038;28;20161;-57
2023/06/18 04:55:29;;;;;;;5.32;3.83;;;;;;;20.08;nan;42543.38;4976731;28;20184;-56
2023/06/18 04:57:56;;;;;;;6.03;3.65;;;;;;;;;;4976708;28;20204;-57
2023/06/18 05:00:22;;;;;;;6.05;3.90;;;;;;;12.89;nan;43222.53;4976073;28;20188;-56
2023/06/18 05:02:48;;;;;;;7.40;4.05;;;;;;;20.56;nan;45435.81;4976872;28;20547;-56
2023/06/18 05:05:15;;;;;;;7.28;4.43;;;;;;;20.51;nan;42591.03;4976788;28;20197;-59
2023/06/18 05:07:40;;;;;;;6.40;4.15;;;;;;;20.59;nan;45335.06;4976372;28;20235;-57
2023/06/18 05:10:06;;;;;;;6.72;4.13;;;;;;;20.25;nan;45373.72;4976729;28;20249;-56
2023/06/18 05:12:32;;;;;;;5.30;4.07;;;;;;;20.31;nan;45889.84;4976252;28;20260;-56
2023/06/18 05:14:57;;;;;;;6.30;4.20;;;;;;;20.66;nan;45912.19;4976939;28;20200;-56
2023/06/18 05:17:22;;;;;;;5.22;3.60;;;;;;;20.41;nan;45678.56;5002527;28;20184;-57
2023/06/18 05:19:48;;;;;;;6.03;4.03;;;;;;;20.72;nan;46305.13;4994897;28;20177;-57
2023/06/18 05:22:13;;;;;;;6.47;3.70;;;;;;;20.76;nan;47779.88;4995059;28;20260;-57
2023/06/18 05:24:39;;;;;;;6.97;4.20;;;;;;;20.63;nan;47520.34;4995380;28;20207;-56
2023/06/18 05:27:05;;;;;;;7.15;4.45;;;;;;;20.61;nan;48348.56;4995015;28;20187;-57
2023/06/18 05:29:31;;;;;;;5.35;3.72;;;;;;;20.65;nan;45252.41;4995373;28;20234;-57
2023/06/18 05:31:56;;;;;;;5.30;3.97;;;;;;;20.47;nan;45924.03;4995262;28;20259;-56
2023/06/18 05:34:22;;;;;;;6.07;3.95;;;;;;;20.74;nan;46133.72;4995280;28;20169;-57
2023/06/18 05:36:47;;;;;;;6.00;4.22;;;;;;;20.64;nan;45523.28;4995382;28;20199;-56
2023/06/18 05:39:12;;;;;;;5.90;3.72;;;;;;;20.83;nan;47610.31;4994951;28;20222;-57
2023/06/18 05:41:38;;;;;;;7.82;4.22;;;;;;;20.76;nan;48674.34;4994872;28;20220;-57
2023/06/18 05:44:03;;;;;;;6.60;4.30;;;;;;;20.89;nan;47636.41;4994578;28;20179;-56
2023/06/18 05:46:29;;;;;;;7.30;4.05;;;;;;;20.96;nan;47616.84;4995082;28;20271;-57
2023/06/18 05:48:54;;;;;;;6.22;4.25;;;;;;;21.00;nan;49855.94;4994930;28;20255;-56
2023/06/18 05:51:20;;;;;;;6.28;4.05;;;;;;;20.86;nan;50453.66;4995027;28;20169;-55
2023/06/18 05:53:45;;;;;;;7.85;4.07;;;;;;;21.03;nan;49333.72;4995137;28;20167;-57
2023/06/18 05:56:10;;;;;;;5.72;3.85;;;;;;;21.07;nan;49676.09;4994783;28;20165;-57
2023/06/18 05:58:36;;;;;;;5.53;3.72;;;;;;;21.10;nan;49456.72;4994457;28;20216;-59
2023/06/18 06:01:01;;;;;;;11.63;4.35;;;;;;;20.92;nan;49885.16;4994886;28;20193;-56
2023/06/18 06:03:27;;;;;;;7.00;4.63;;;;;;;21.21;nan;50950.53;4994561;28;20605;-56
2023/06/18 06:05:52;;;;;;;6.82;4.35;;;;;;;21.15;nan;50150.16;4994505;28;20204;-57
2023/06/18 06:08:18;;;;;;;6.80;4.07;;;;;;;19.64;nan;52510.84;4994438;28;20601;-57
2023/06/18 06:10:43;;;;;;;6.55;4.05;;;;;;;21.29;nan;51711.69;4993343;28;20640;-57
2023/06/18 06:13:09;;;;;;;6.97;4.25;;;;;;;21.40;nan;51963.41;4994349;28;20215;-58
2023/06/18 06:15:34;;;;;;;7.70;4.60;;;;;;;21.28;nan;51540.19;4994565;28;20240;-56
2023/06/18 06:18:01;;;;;;;5.75;3.97;;;;;;;21.20;nan;51768.25;4994511;28;20222;-56
2023/06/18 06:20:26;;;;;;;6.35;4.45;;;;;;;21.43;nan;52570.34;4994514;28;20172;-58
2023/06/18 06:22:52;;;;;;;5.85;4.03;;;;;;;21.48;nan;53215.75;4994604;28;20276;-57
2023/06/18 06:25:17;;;;;;;6.30;4.35;;;;;;;21.67;nan;53366.91;4994431;28;20184;-61
2023/06/18 06:27:43;;;;;;;5.90;4.10;;;;;;;21.79;nan;52911.84;4994038;28;20221;-58
2023/06/18 06:30:09;;;;;;;5.63;4.15;;;;;;;21.11;nan;51684.84;4994162;28;20654;-57
2023/06/18 06:32:35;;;;;;;6.68;4.28;;;;;;;21.46;nan;50748.47;4994369;28;20700;-57
2023/06/18 06:35:02;;;;;;;6.90;4.75;;;;;;;21.44;nan;51067.91;4993712;28;20172;-56
2023/06/18 06:37:27;;;;;;;6.40;4.30;;;;;;;21.64;nan;49889.13;4993851;28;20267;-56
2023/06/18 06:39:52;;;;;;;7.53;4.65;;;;;;;21.66;nan;50684.09;4993770;28;20633;-56
2023/06/18 06:42:18;;;;;;;8.70;4.68;;;;;;;21.60;nan;52024.81;4993906;28;20653;-56
2023/06/18 06:44:43;;;;;;;7.63;5.00;;;;;;;21.69;nan;52284.16;4996035;28;20215;-56
2023/06/18 06:47:09;;;;;;;8.38;5.22;;;;;;;21.46;nan;51932.94;4998828;28;20250;-57
2023/06/18 06:49:35;;;;;;;7.03;4.65;;;;;;;21.54;nan;54513.56;4993716;28;20181;-57
2023/06/18 06:52:01;;;;;;;11.07;6.13;;;;;;;21.28;nan;48747.53;4993478;28;20276;-57
2023/06/18 06:54:26;;;;;;;9.90;5.90;;;;;;;21.49;nan;49562.06;4993029;28;20172;-58
2023/06/18 06:56:51;;;;;;;8.10;5.13;;;;;;;21.57;nan;51003.06;4993608;28;20220;-55
2023/06/18 06:59:17;;;;;;;7.65;4.80;;;;;;;21.89;nan;50535.31;4993676;28;20177;-58
2023/06/18 07:01:43;;;;;;;7.28;5.18;;;;;;;21.07;nan;50857.31;4993215;28;20176;-58
2023/06/18 07:04:10;;;;;;;6.78;4.40;;;;;;;21.94;nan;52526.56;4993129;28;20635;-57
2023/06/18 07:06:38;;;;;;;7.80;5.00;;;;;;;21.76;nan;52814.97;4993386;28;20203;-57
2023/06/18 07:09:04;;;;;;;7.07;4.90;;;;;;;22.01;nan;52803.34;4992765;28;20532;-56
2023/06/18 07:11:29;;;;;;;8.20;4.68;;;;;;;22.03;nan;52912.22;4992071;28;20173;-57
2023/06/18 07:13:55;;;;;;;6.47;4.63;;;;;;;22.06;nan;53895.44;4993259;28;20169;-57
2023/06/18 07:16:20;;;;;;;6.82;4.95;;;;;;;21.70;nan;53079.34;4993148;28;20157;-56
2023/06/18 07:18:45;;;;;;;6.15;4.50;;;;;;;21.80;nan;52819.44;4993115;28;20176;-56
2023/06/18 07:21:11;;;;;;;7.78;5.07;;;;;;;22.06;nan;52922.44;4992868;28;20180;-57
2023/06/18 07:23:37;;;;;;;7.57;5.10;;;;;;;21.83;nan;52762.22;4993227;28;20545;-57
2023/06/18 07:26:03;;;;;;;6.20;4.60;;;;;;;21.91;nan;54322.66;4992742;28;20208;-57
2023/06/18 07:28:28;;;;;;;6.88;4.82;;;;;;;22.33;nan;53083.69;4993164;28;20168;-58
2023/06/18 07:30:54;;;;;;;7.35;4.90;;;;;;;22.32;nan;54856.72;4992903;28;20601;-57
2023/06/18 07:33:20;;;;;;;7.35;4.50;;;;;;;22.75;nan;55587.03;4992748;28;20191;-58
2023/06/18 07:35:45;;;;;;;7.88;4.80;;;;;;;22.69;nan;55593.84;4993018;28;20173;-56
2023/06/18 07:38:11;;;;;;;7.00;4.65;;;;;;;22.52;nan;55721.34;4992886;28;20172;-56
2023/06/18 07:40:38;;;;;;;8.43;4.95;;;;;;;22.68;nan;55446.66;4992619;28;20263;-57
2023/06/18 07:43:04;;;;;;;7.53;4.85;;;;;;;22.73;nan;55750.88;4992716;28;20263;-58
2023/06/18 07:45:29;;;;;;;9.43;4.97;;;;;;;22.92;nan;55960.44;4992601;28;20196;-57
2023/06/18 07:47:55;;;;;;;8.25;5.38;;;;;;;22.64;nan;56384.38;4992706;28;20184;-57
2023/06/18 07:50:20;;;;;;;8.50;5.40;;;;;;;22.67;nan;55919.41;4992955;28;20176;-56
2023/06/18 07:52:46;;;;;;;9.35;5.78;;;;;;;22.76;nan;55785.72;4992058;28;20173;-56
2023/06/18 07:55:11;;;;;;;7.28;4.90;;;;;;;22.93;nan;56226.31;4992594;28;20176;-57
2023/06/18 07:57:38;;;;;;;7.38;4.78;;;;;;;22.84;nan;56043.19;4992703;28;20176;-58
2023/06/18 08:00:05;;;;;;;8.07;5.00;;;;;;;22.40;nan;56642.66;4992242;28;20311;-57
2023/06/18 08:02:30;;;;;;;8.85;5.13;;;;;;;22.81;nan;56313.19;4992258;28;20187;-57
2023/06/18 08:04:55;;;;;;;6.57;4.57;;;;;;;22.48;nan;56113.38;4992206;28;20197;-57
2023/06/18 08:07:21;;;;;;;9.52;4.93;;;;;;;22.84;nan;56646.72;4992215;28;20267;-58
2023/06/18 08:09:46;;;;;;;6.72;4.70;;;;;;;23.03;nan;56192.50;4992557;28;20192;-57
2023/06/18 08:12:11;;;;;;;7.35;4.43;;;;;;;23.09;nan;56193.53;4992217;28;20165;-58
2023/06/18 08:14:37;;;;;;;8.43;5.63;;;;;;;23.20;nan;57004.69;4992101;28;20184;-57
2023/06/18 08:17:03;;;;;;;5.57;3.88;;;;;;;23.44;nan;57102.44;4992351;28;20169;-57
2023/06/18 08:19:28;;;;;;;7.28;5.13;;;;;;;23.68;nan;57497.22;4992182;28;20195;-57
2023/06/18 08:21:53;;;;;;;6.70;4.75;;;;;;;23.66;nan;57792.19;4992418;28;20165;-56
2023/06/18 08:24:19;;;;;;;6.95;4.55;;;;;;;23.91;nan;58013.84;4990862;28;20661;-59
2023/06/18 08:26:44;;;;;;;9.02;4.63;;;;;;;23.59;nan;57625.75;4992201;28;20177;-57
2023/06/18 08:29:10;;;;;;;8.55;5.40;;;;;;;23.67;nan;57181.44;4991532;28;20272;-57
2023/06/18 08:31:40;;;;;;;10.98;7.75;;;;;;;23.55;nan;58127.50;4999660;28;20265;-56
2023/06/18 08:34:06;;;;;;;16.13;10.88;;;;;;;23.59;nan;58024.97;4990704;28;20184;-57
2023/06/18 08:36:32;;;;;;;49.20;29.50;;;;;;;22.91;nan;57869.38;4998888;28;20173;-57
2023/06/18 08:38:57;;;;;;;8.48;5.47;;;;;;;23.64;nan;57784.81;5000127;28;20187;-57
2023/06/18 08:41:22;;;;;;;55.30;33.88;;;;;;;23.42;nan;58053.09;4991973;28;20230;-58
2023/06/18 08:43:48;;;;;;;9.75;6.55;;;;;;;23.33;nan;58466.53;4992982;28;20184;-57
2023/06/18 08:46:16;;;;;;;13.75;10.00;;;;;;;23.41;nan;57823.31;4998015;28;20576;-58
2023/06/18 08:48:58;;;;;;;9.32;6.25;;;;;;;23.81;nan;58110.03;4991678;28;20181;-57
2023/06/18 08:51:24;;;;;;;6.65;4.85;;;;;;;23.56;nan;58485.06;4990146;28;20773;-57
2023/06/18 08:53:55;;;;;;;6.78;4.47;;;;;;;23.35;nan;58374.88;4999280;28;20183;-57
2023/06/18 08:56:23;;;;;;;5.68;4.22;;;;;;;23.55;nan;58900.97;4990930;28;20181;-57
2023/06/18 08:58:50;;;;;;;11.02;5.05;;;;;;;23.60;nan;58617.63;4998159;28;20274;-57
2023/06/18 09:01:18;;;;;;;6.63;4.47;;;;;;;23.64;nan;58780.41;4998557;28;20185;-58
2023/06/18 09:03:44;;;;;;;7.80;4.13;;;;;;;23.68;nan;58217.06;5000306;28;20188;-56
2023/06/18 09:06:11;;;;;;;7.88;4.38;;;;;;;23.70;nan;58393.31;4996101;28;20220;-58
2023/06/18 09:08:37;;;;;;;5.80;4.20;;;;;;;23.56;nan;58548.16;4994974;28;20189;-59
2023/06/18 09:11:04;;;;;;;10.23;6.68;;;;;;;23.94;nan;58848.91;4998638;28;20259;-57
2023/06/18 09:13:29;;;;;;;7.28;4.47;;;;;;;23.66;nan;58610.53;5000279;28;20591;-57
2023/06/18 09:15:55;;;;;;;7.55;4.47;;;;;;;23.68;nan;58372.91;4990810;28;20249;-57
2023/06/18 09:18:24;;;;;;;7.75;4.90;;;;;;;23.76;nan;58760.06;5000087;28;20184;-58
2023/06/18 09:20:51;;;;;;;6.65;4.43;;;;;;;23.73;nan;58754.22;4999588;28;20183;-57
2023/06/18 09:23:16;;;;;;;7.63;4.93;;;;;;;23.58;nan;58276.66;4991660;28;20177;-56
2023/06/18 09:25:48;;;;;;;6.13;4.22;;;;;;;23.29;nan;58157.44;4991369;28;20251;-57
2023/06/18 09:28:15;;;;;;;11.15;4.68;;;;;;;23.84;nan;58348.44;4991346;28;20203;-59
2023/06/18 09:30:49;;;;;;;6.47;4.18;;;;;;;20.41;nan;58585.03;4999565;28;20202;-59
2023/06/18 09:33:14;;;;;;;5.88;3.97;;;;;;;23.70;nan;58573.16;4990909;28;20172;-57
2023/06/18 09:35:40;;;;;;;7.63;4.50;;;;;;;23.51;nan;58464.56;5001751;28;20169;-58
2023/06/18 09:38:09;;;;;;;7.13;4.78;;;;;;;23.43;nan;58143.28;4994905;28;20287;-57
2023/06/18 09:40:34;;;;;;;6.65;4.35;;;;;;;23.61;nan;58324.22;4994786;28;20169;-57
2023/06/18 09:43:01;;;;;;;6.53;4.22;;;;;;;23.47;nan;58381.56;5002329;28;20232;-57
2023/06/18 09:45:26;;;;;;;7.43;4.55;;;;;;;23.94;nan;58711.22;4994599;28;20208;-57
2023/06/18 09:47:52;;;;;;;6.07;4.05;;;;;;;24.05;nan;58860.81;4995240;28;20548;-59
2023/06/18 09:50:18;;;;;;;5.20;3.72;;;;;;;22.92;nan;59054.97;4994884;28;20184;-57
2023/06/18 09:52:48;;;;;;;6.00;4.00;;;;;;;24.20;nan;59357.22;4995437;28;20196;-58
2023/06/18 09:55:31;;;;;;;5.78;3.75;;;;;;;24.31;nan;59413.63;5004986;28;20191;-57
2023/06/18 09:57:58;;;;;;;5.57;3.63;;;;;;;24.51;nan;59688.19;4994201;28;20188;-57
2023/06/18 10:00:25;;;;;;;5.78;3.75;;;;;;;24.54;nan;59801.72;4993338;28;20189;-57
2023/06/18 10:02:51;;;;;;;6.75;4.18;;;;;;;24.61;nan;60409.56;5003252;28;20180;-57
2023/06/18 10:05:16;;;;;;;6.40;4.25;;;;;;;24.76;nan;60692.16;4993546;28;20668;-56
2023/06/18 10:07:43;;;;;;;4.90;3.60;;;;;;;24.69;nan;60802.47;5000802;28;20210;-57
2023/06/18 10:10:13;;;;;;;7.70;3.83;;;;;;;24.58;nan;60735.31;4998414;28;20187;-57
2023/06/18 10:12:43;;;;;;;4.80;3.20;;;;;;;24.44;nan;60702.00;4995216;28;20180;-57
2023/06/18 10:15:12;;;;;;;5.05;3.40;;;;;;;24.65;nan;61064.47;5000990;28;20267;-57
2023/06/18 10:17:49;;;;;;;5.32;3.47;;;;;;;25.13;nan;60916.44;5002370;28;20177;-57
2023/06/18 10:20:17;;;;;;;3.97;3.15;;;;;;;24.93;nan;61012.25;5001046;28;20183;-59
2023/06/18 10:22:49;;;;;;;4.78;3.50;;;;;;;24.66;nan;61070.81;4994482;28;20259;-57
2023/06/18 10:25:15;;;;;;;4.38;3.38;;;;;;;24.53;nan;61020.25;4998355;28;20199;-58
2023/06/18 10:27:41;;;;;;;5.93;3.42;;;;;;;24.68;nan;61080.91;4993311;28;20193;-58
2023/06/18 10:30:08;;;;;;;5.53;3.80;;;;;;;24.56;nan;61046.53;5001058;28;20181;-58
2023/06/18 10:32:35;;;;;;;5.68;3.70;;;;;;;24.32;nan;61132.50;5000675;28;20200;-56
2023/06/18 10:35:06;;;;;;;5.93;3.80;;;;;;;24.61;nan;61060.53;5002310;28;20259;-57
2023/06/18 10:37:34;;;;;;;5.68;3.97;;;;;;;24.19;nan;60938.31;4993341;28;20180;-57
2023/06/18 10:40:00;;;;;;;5.47;3.92;;;;;;;24.54;nan;60997.84;4994116;28;20172;-58
2023/06/18 10:42:25;;;;;;;5.07;3.88;;;;;;;24.30;nan;60986.06;4992590;28;20251;-57
2023/06/18 10:44:57;;;;;;;6.43;3.80;;;;;;;24.37;nan;60954.75;4993024;28;20204;-59
2023/06/18 10:47:30;;;;;;;6.47;4.03;;;;;;;24.47;nan;60963.31;5002197;28;20180;-58
2023/06/18 10:50:07;;;;;;;6.20;3.97;;;;;;;24.63;nan;61002.16;4992738;28;20276;-57
2023/06/18 10:52:42;;;;;;;5.45;3.70;;;;;;;24.42;nan;60882.56;4999238;28;20244;-58
2023/06/18 10:55:24;;;;;;;6.00;4.00;;;;;;;24.42;nan;60885.16;4993665;28;20745;-57
2023/06/18 10:58:05;;;;;;;6.03;3.67;;;;;;;24.35;nan;61146.31;4991179;28;20649;-57
2023/06/18 11:00:40;;;;;;;9.60;4.05;;;;;;;24.57;nan;60841.88;4997183;28;20276;-58
2023/06/18 11:03:14;;;;;;;8.05;4.55;;;;;;;24.74;nan;60964.81;5002219;28;20180;-57
2023/06/18 11:05:40;;;;;;;5.53;3.60;;;;;;;24.61;nan;61102.34;4993701;28;20203;-59
2023/06/18 11:08:11;;;;;;;5.35;3.50;;;;;;;24.13;nan;61040.69;4993440;28;20226;-60
2023/06/18 11:10:38;;;;;;;6.03;3.90;;;;;;;24.04;nan;61038.41;4999555;28;20238;-57
2023/06/18 11:13:06;;;;;;;6.22;3.35;;;;;;;24.14;nan;61080.94;5001325;28;20181;-60
2023/06/18 11:15:33;;;;;;;6.07;3.70;;;;;;;23.33;nan;61590.91;4993602;28;20180;-58
2023/06/18 11:18:01;;;;;;;5.40;3.97;;;;;;;24.16;nan;61098.88;4993681;28;20191;-59
2023/06/18 11:20:30;;;;;;;5.50;3.60;;;;;;;24.55;nan;60925.81;4976027;28;20199;-59
2023/06/18 11:22:57;;;;;;;4.88;3.47;;;;;;;24.31;nan;60924.53;4991901;28;20276;-57
2023/06/18 11:25:25;;;;;;;5.35;3.30;;;;;;;24.70;nan;60946.72;5001417;28;20196;-58
2023/06/18 11:27:53;;;;;;;4.05;3.13;;;;;;;24.73;nan;61138.22;4992927;28;20191;-56
2023/06/18 11:30:19;;;;;;;4.72;3.38;;;;;;;24.75;nan;61127.38;4993543;28;20260;-59
2023/06/18 11:32:46;;;;;;;4.68;3.47;;;;;;;24.91;nan;61231.63;4992851;28;20215;-59
2023/06/18 11:35:12;;;;;;;5.43;3.58;;;;;;;25.13;nan;61109.91;4993170;28;20247;-60
2023/06/18 11:37:39;;;;;;;4.53;3.22;;;;;;;24.91;nan;61963.56;4992762;28;20246;-58
2023/06/18 11:40:07;;;;;;;4.72;3.60;;;;;;;24.80;nan;62027.41;4992801;28;20171;-59
2023/06/18 11:42:33;;;;;;;4.32;3.13;;;;;;;25.05;nan;62382.19;4975507;28;20606;-58
2023/06/18 11:45:03;;;;;;;5.18;3.67;;;;;;;25.00;nan;62135.91;4993064;28;20251;-59
2023/06/18 11:47:30;;;;;;;4.63;3.45;;;;;;;24.90;nan;62122.47;4993079;28;20171;-58
2023/06/18 11:49:56;;;;;;;4.80;3.67;;;;;;;24.78;nan;62150.03;4991823;28;20554;-57